Peotone Weather

Nearby METAR Reports

 

KIGQ - Lansing, Illinois, USA
Distance from station: NE 19mi, 30km
Updated: Fri, 02-Dec-2022 3:35am CST
Overcast
Overcast
 Wind from S
Wind: S 13 mph , 20 km/h
Temperature: 37°F , 3°C
Wind Chill: 29°F , -2°C
Dew Point: 21°F , -6°C
Humidity: 52%
Barometer: 30.13 inHg , 1020.3 hPa
Clouds: Overcast
Visibility: 10 miles , 16 km
Cloud details: Overcast 6500 ft
2022/12/02 09:35 KIGQ 020935Z AUTO 19011KT 10SM OVC065 03/M06 A3013 RMK AO2 T00251058
KIKK - Kankakee, Illinois, USA
Distance from station: S 19mi, 30km
Updated: Fri, 02-Dec-2022 3:35am CST
Overcast
Overcast
 Wind from S
Wind: S 16 mph , 26 km/h, Gust: 24 mph , 39 km/h
Temperature: 37°F , 3°C
Wind Chill: 28°F , -2°C
Dew Point: 21°F , -6°C
Humidity: 52%
Barometer: 30.13 inHg , 1020.3 hPa
Clouds: Overcast
Visibility: 10 miles , 16 km
Cloud details: Overcast 6500 ft
2022/12/02 09:35 KIKK 020935Z AUTO 19014G21KT 10SM OVC065 03/M06 A3013 RMK AO2 T00251056
 
KSJC - Joliet, Illinois, USA
Distance from station: WNW 24mi, 38km
Updated: Fri, 02-Dec-2022 2:53am CST
NOT Current
Clear
Clear
 Wind from calm
Wind: Calm
Temperature: 39°F , 4°C
Dew Point: 36°F , 2°C
Humidity: 87%
Barometer: 30.13 inHg , 1020.3 hPa
Clouds: Clear
Visibility: 10 miles , 16 km
2022/12/02 08:53 KSJC 020853Z AUTO 00000KT 10SM CLR 04/02 A3013 RMK AO2 SLP203 T00440022 53024
KLOT - Romeoville, Illinois, USA
Distance from station: NW 26mi, 41km
Updated: Fri, 02-Dec-2022 3:35am CST
Overcast
Overcast
 Wind from S
Wind: S 18 mph , 30 km/h, Gust: 25 mph , 41 km/h
Temperature: 37°F , 3°C
Wind Chill: 27°F , -3°C
Dew Point: 21°F , -6°C
Humidity: 52%
Barometer: 30.10 inHg , 1019.3 hPa
Clouds: Overcast
Visibility: 10 miles , 16 km
Cloud details: Overcast 4900 ft
2022/12/02 09:35 KLOT 020935Z AUTO 17016G22KT 10SM OVC049 03/M06 A3010 RMK AO2
 
KMDW - Midway Airport Chicago, Illinois, USA
Distance from station: N 31mi, 50km
Updated: Fri, 02-Dec-2022 2:53am CST
NOT Current
Overcast
Overcast
 Wind from SSW
Wind: SSW 15 mph , 24 km/h, Gust: 24 mph , 39 km/h
Temperature: 37°F , 3°C
Wind Chill: 28°F , -2°C
Dew Point: 19°F , -7°C
Humidity: 48%
Barometer: 30.12 inHg , 1020 hPa
Clouds: Overcast
Visibility: 10 miles , 16 km
Cloud details: Overcast 5500 ft
2022/12/02 08:53 KMDW 020853Z 21013G21KT 10SM OVC055 03/M07 A3012 RMK AO2 PK WND 21028/0802 SLP210 T00331067 56015
KC09 - Morris, Illinois, USA
Distance from station: W 34mi, 54km
Updated: Fri, 02-Dec-2022 3:35am CST
Overcast
Overcast
 Wind from S
Wind: S 14 mph , 22 km/h
Temperature: 36°F , 2°C
Wind Chill: 27°F , -3°C
Dew Point: 25°F , -4°C
Humidity: 65%
Barometer: 30.09 inHg , 1019 hPa
Clouds: Overcast
Visibility: 10 miles , 16 km
Cloud details: Overcast 5000 ft
2022/12/02 09:35 KC09 020935Z AUTO 18012KT 10SM OVC050 02/M04 A3009 RMK AO2 T00221040

Metar display script from Saratoga-Weather.org